Time;durP1;ratioP1;P1;durP2;ratioP2;P2;SDS_P1;SDS_P2;PMS_P1;PMS_P2;Temp;Humidity;BMP_temperature;BMP_pressure;BME280_temperature;BME280_humidity;BME280_pressure;Samples;Min_cycle;Max_cycle;Signal;HPM_P1;HPM_P2
2022/12/27 00:01:41;;;;;;;5.77;1.20;;;4.20;99.90;3.50;99651;;;;566917;249;24130;-76
2022/12/27 00:04:09;;;;;;;2.60;1.00;;;4.10;99.90;3.40;99648;;;;557769;255;24171;-75
2022/12/27 00:06:37;;;;;;;3.07;0.63;;;4.10;99.90;3.40;99653;;;;575766;248;24099;-77
2022/12/27 00:09:05;;;;;;;13.23;1.20;;;4.00;99.90;3.30;99661;;;;557805;255;24191;-76
2022/12/27 00:11:33;;;;;;;1.63;0.40;;;4.00;99.90;3.30;99666;;;;557720;255;24108;-77
2022/12/27 00:14:04;;;;;;;2.30;0.63;;;3.90;99.90;3.30;99657;;;;575948;248;24149;-79
2022/12/27 00:16:28;;;;;;;4.10;1.03;;;3.90;99.90;3.20;99667;;;;556728;255;24150;-76
2022/12/27 00:18:56;;;;;;;2.93;1.30;;;3.80;99.90;3.20;99671;;;;575350;248;24134;-76
2022/12/27 00:21:24;;;;;;;6.50;1.20;;;3.80;99.90;3.10;99678;;;;557912;254;24180;-75
2022/12/27 00:23:52;;;;;;;7.20;1.67;;;3.70;99.90;3.00;99685;;;;557154;254;24486;-74
2022/12/27 00:26:21;;;;;;;5.87;1.50;;;3.60;99.90;3.00;99686;;;;568357;245;24193;-76
2022/12/27 00:28:49;;;;;;;9.70;2.00;;;3.60;99.90;2.90;99699;;;;557383;253;24118;-76
2022/12/27 00:31:19;;;;;;;6.03;1.87;;;3.60;99.90;2.90;99700;;;;571190;244;24133;-76
2022/12/27 00:33:44;;;;;;;6.50;1.60;;;3.50;99.90;2.80;99713;;;;570644;249;24104;-73
2022/12/27 00:36:12;;;;;;;6.20;1.47;;;3.40;99.90;2.70;99722;;;;576145;249;24159;-74
2022/12/27 00:38:40;;;;;;;14.97;1.70;;;3.40;99.90;2.70;99711;;;;565321;254;24132;-78
2022/12/27 00:41:12;;;;;;;5.90;2.00;;;3.30;99.90;2.70;99728;;;;569398;249;24090;-80
2022/12/27 00:43:36;;;;;;;7.53;1.87;;;3.30;99.90;2.70;99733;;;;568201;249;24153;-80
2022/12/27 00:46:08;;;;;;;11.37;1.90;;;3.30;99.90;2.60;99737;;;;577795;248;25127;-78
2022/12/27 00:48:35;;;;;;;10.40;1.97;;;3.20;99.90;2.60;99742;;;;563449;249;24138;-81
2022/12/27 00:51:00;;;;;;;8.53;2.00;;;3.20;99.90;2.70;99748;;;;576648;249;24115;-79
2022/12/27 00:53:31;;;;;;;6.67;1.80;;;3.30;99.90;2.70;99749;;;;565270;254;24136;-80
2022/12/27 00:55:56;;;;;;;4.73;1.40;;;3.30;99.90;2.70;99749;;;;567805;249;24109;-81
2022/12/27 00:58:25;;;;;;;7.27;1.50;;;3.40;99.90;2.80;99750;;;;577183;249;24107;-80
2022/12/27 01:00:53;;;;;;;6.17;2.10;;;3.30;99.90;2.70;99746;;;;576527;249;24140;-77
2022/12/27 01:03:21;;;;;;;6.30;1.50;;;3.30;99.90;2.70;99743;;;;572219;247;24132;-80
2022/12/27 01:05:49;;;;;;;10.93;1.83;;;3.30;99.90;2.70;99762;;;;569889;251;24095;-80
2022/12/27 01:08:17;;;;;;;8.30;1.40;;;3.30;99.90;2.70;99755;;;;576840;248;24247;-81
2022/12/27 01:10:45;;;;;;;6.13;1.47;;;3.30;99.90;2.70;99754;;;;567862;249;24087;-80
2022/12/27 01:13:14;;;;;;;4.80;1.30;;;3.30;99.90;2.70;99753;;;;577369;247;24098;-78
2022/12/27 01:15:42;;;;;;;11.53;2.57;;;3.30;99.90;2.70;99739;;;;563938;248;24121;-80
2022/12/27 01:18:10;;;;;;;8.17;2.00;;;3.30;99.90;2.60;99749;;;;568483;249;24166;-81
2022/12/27 01:20:38;;;;;;;9.83;2.07;;;3.30;99.90;2.60;99746;;;;577118;248;24148;-81
2022/12/27 01:23:05;;;;;;;8.70;1.63;;;3.30;99.90;2.60;99753;;;;563244;249;24077;-79
2022/12/27 01:25:33;;;;;;;9.60;2.77;;;3.30;99.90;2.60;99759;;;;576328;249;24106;-78
2022/12/27 01:28:01;;;;;;;11.83;3.17;;;3.20;99.90;2.70;99769;;;;576717;248;24134;-79
2022/12/27 01:30:29;;;;;;;11.33;2.17;;;3.30;99.90;2.60;99771;;;;576394;249;24109;-79
2022/12/27 01:33:01;;;;;;;9.93;2.07;;;3.30;99.90;2.60;99778;;;;576768;249;24094;-80
2022/12/27 01:35:25;;;;;;;10.53;2.00;;;3.20;99.90;2.50;99784;;;;575833;248;24107;-80
2022/12/27 01:37:53;;;;;;;7.30;2.33;;;3.10;99.90;2.40;99783;;;;576850;248;24083;-79
2022/12/27 01:40:21;;;;;;;12.27;2.30;;;3.10;99.90;2.40;99786;;;;576841;248;24099;-74
2022/12/27 01:42:51;;;;;;;11.37;2.53;;;3.00;99.90;2.40;99793;;;;576880;249;24075;-78
2022/12/27 01:45:19;;;;;;;11.03;2.27;;;3.00;99.90;2.40;99788;;;;576771;249;24088;-75
2022/12/27 01:47:56;;;;;;;13.27;3.07;;;3.00;99.90;2.40;99788;;;;568520;249;24129;-81
2022/12/27 01:50:38;;;;;;;12.40;2.50;;;3.00;99.90;2.50;99793;;;;576748;248;24150;-79
2022/12/27 01:53:21;;;;;;;10.80;1.97;;;3.10;99.90;2.60;99799;;;;569815;249;24103;-81
2022/12/27 01:56:06;;;;;;;10.10;1.92;;;3.20;99.90;2.70;99798;;;;564311;249;35434;-78
2022/12/27 01:58:40;;;;;;;6.30;1.23;;;3.30;99.90;2.80;99795;;;;577942;248;24118;-79
2022/12/27 02:01:17;;;;;;;9.17;1.83;;;3.50;99.90;2.90;99801;;;;577722;248;24175;-77
2022/12/27 02:03:48;;;;;;;8.60;1.97;;;3.50;99.90;3.10;99803;;;;572033;249;24109;-77
2022/12/27 02:06:15;;;;;;;7.57;1.47;;;3.70;99.90;3.20;99799;;;;577633;249;24099;-77
2022/12/27 02:09:28;;;;;;;13.40;2.07;;;3.80;99.90;3.30;99813;;;;563517;249;24110;-77
2022/12/27 02:11:57;;;;;;;5.70;1.40;;;4.00;99.90;3.40;99822;;;;577588;248;24100;-75
2022/12/27 02:14:34;;;;;;;5.23;1.60;;;4.00;99.90;3.50;99804;;;;577535;249;24103;-78
2022/12/27 02:17:02;;;;;;;3.77;1.40;;;4.10;99.90;3.50;99818;;;;565038;254;24095;-80
2022/12/27 02:19:41;;;;;;;9.83;2.00;;;4.10;99.90;3.50;99819;;;;554978;255;24134;-80
2022/12/27 02:25:11;;;;;;;4.10;1.33;;;4.10;99.90;3.60;99812;;;;546527;258;24137;-73
2022/12/27 02:27:44;;;;;;;5.00;0.87;;;4.20;99.90;3.60;99811;;;;549682;256;24134;-75
2022/12/27 02:30:12;;;;;;;2.83;1.63;;;4.20;99.90;3.60;99810;;;;568577;249;24116;-79
2022/12/27 02:32:55;;;;;;;3.30;0.90;;;4.20;99.90;3.60;99804;;;;563437;249;24144;-80
2022/12/27 02:35:38;;;;;;;4.27;1.00;;;4.20;99.90;3.60;99806;;;;556298;255;24138;-80
2022/12/27 02:38:12;;;;;;;6.50;1.13;;;4.20;99.90;3.60;99807;;;;576852;247;24106;-80
2022/12/27 02:58:49;;;;;;;11.00;2.17;;;4.20;99.90;3.60;99840;;;;559032;250;25104;-80
2022/12/27 03:04:17;;;;;;;8.20;1.60;;;4.20;99.90;3.60;99848;;;;561344;254;24151;-75
2022/12/27 03:07:00;;;;;;;6.17;1.73;;;4.30;99.90;3.70;99845;;;;557983;254;24117;-78
2022/12/27 03:16:09;;;;;;;6.60;1.43;;;4.20;99.90;3.60;99863;;;;566129;252;24091;-80
2022/12/27 03:18:37;;;;;;;7.47;2.00;;;4.20;99.90;3.60;99866;;;;563760;250;24208;-73
2022/12/27 03:26:36;;;;;;;6.07;1.37;;;4.20;99.90;3.60;99863;;;;577434;249;24086;-73
2022/12/27 03:34:37;;;;;;;7.73;1.70;;;4.20;99.90;3.60;99870;;;;572069;249;36397;-77
2022/12/27 03:40:10;;;;;;;14.07;2.07;;;4.20;99.90;3.70;99873;;;;566828;249;24143;-73
2022/12/27 03:46:32;;;;;;;6.87;1.20;;;4.30;99.90;3.70;99870;;;;577058;249;24135;-73
2022/12/27 03:48:00;;;;;;;4.83;1.40;;;4.30;99.90;3.60;99867;;;;562542;254;24129;-73
2022/12/27 03:50:34;;;;;;;3.50;1.57;;;4.30;99.90;3.60;99873;;;;556559;255;24160;-73
2022/12/27 03:53:13;;;;;;;6.80;1.40;;;4.20;99.90;3.60;99883;;;;566247;249;24142;-72
2022/12/27 03:55:42;;;;;;;5.33;1.33;;;4.10;99.90;3.50;99869;;;;576561;249;24095;-72
2022/12/27 03:58:14;;;;;;;3.90;1.30;;;4.10;99.90;3.40;99873;;;;576635;249;24104;-73
2022/12/27 04:00:38;;;;;;;7.27;1.93;;;3.90;99.90;3.30;99863;;;;576025;249;24101;-73
2022/12/27 04:03:06;;;;;;;4.50;0.80;;;3.90;99.90;3.20;99868;;;;576703;249;24109;-73
2022/12/27 04:05:35;;;;;;;6.90;1.37;;;3.80;99.90;3.20;99868;;;;568038;249;24084;-72
2022/12/27 04:35:41;;;;;;;8.83;2.43;;;3.40;99.90;2.80;99901;;;;576989;248;24165;-75
2022/12/27 04:38:09;;;;;;;8.63;2.47;;;3.40;99.90;2.80;99898;;;;577395;247;24091;-73
2022/12/27 04:54:56;;;;;;;8.67;3.13;;;3.60;99.90;3.00;99926;;;;577469;249;24079;-74
2022/12/27 04:57:24;;;;;;;7.30;2.50;;;3.60;99.90;3.00;99918;;;;578848;248;24109;-73
2022/12/27 05:02:38;;;;;;;9.73;2.30;;;3.70;99.90;3.10;99926;;;;577336;249;25131;-73
2022/12/27 05:05:06;;;;;;;5.10;2.17;;;3.70;99.90;3.20;99930;;;;577447;248;24127;-72
2022/12/27 05:15:51;;;;;;;9.03;2.17;;;3.80;99.90;3.20;99929;;;;576648;249;24099;-74
2022/12/27 05:18:19;;;;;;;4.73;1.73;;;3.80;99.90;3.20;99936;;;;576734;248;24087;-74
2022/12/27 05:20:47;;;;;;;5.03;1.57;;;3.80;99.90;3.20;99936;;;;577067;248;24107;-77
2022/12/27 05:26:04;;;;;;;4.90;1.73;;;3.80;99.90;3.20;99955;;;;577174;246;24098;-75
2022/12/27 05:28:28;;;;;;;2.13;1.23;;;3.80;99.90;3.10;99953;;;;573068;249;24104;-75
2022/12/27 05:30:56;;;;;;;10.03;2.07;;;3.70;99.90;3.10;99948;;;;577697;248;24090;-74
2022/12/27 05:33:25;;;;;;;3.27;1.70;;;3.70;99.90;3.00;99961;;;;564953;254;24123;-74
2022/12/27 05:35:53;;;;;;;9.50;2.13;;;3.60;99.90;3.10;99956;;;;577445;247;24087;-74
2022/12/27 05:38:21;;;;;;;12.05;2.60;;;3.70;99.90;3.10;99955;;;;572127;248;35356;-76
2022/12/27 05:40:49;;;;;;;8.37;1.67;;;3.70;99.90;3.10;99963;;;;577300;248;25133;-74
2022/12/27 05:43:17;;;;;;;8.27;1.77;;;3.70;99.90;3.10;99967;;;;577228;247;24140;-77
2022/12/27 05:45:45;;;;;;;9.73;1.80;;;3.80;99.90;3.10;99965;;;;579341;244;24057;-73
2022/12/27 05:48:13;;;;;;;5.40;1.40;;;3.80;99.90;3.10;99961;;;;573230;244;24059;-75
2022/12/27 05:50:41;;;;;;;5.60;1.63;;;3.80;99.90;3.10;99958;;;;577907;244;24130;-81
2022/12/27 05:53:09;;;;;;;5.27;1.47;;;3.80;99.90;3.10;99964;;;;578003;244;24059;-77
2022/12/27 05:55:38;;;;;;;7.53;1.90;;;3.70;99.90;3.10;99967;;;;577952;244;24146;-77
2022/12/27 05:58:06;;;;;;;8.97;2.07;;;3.70;99.90;3.10;99972;;;;578056;244;24065;-77
2022/12/27 06:00:35;;;;;;;6.80;1.90;;;3.70;99.90;3.00;99969;;;;578024;244;24047;-77
2022/12/27 06:03:06;;;;;;;6.27;1.43;;;3.60;99.90;3.00;99958;;;;577972;244;24059;-76
2022/12/27 06:05:31;;;;;;;12.07;2.70;;;3.60;99.90;3.00;99966;;;;572028;244;35089;-78
2022/12/27 06:07:59;;;;;;;2.80;1.60;;;3.60;99.90;2.90;99959;;;;577828;244;24112;-79
2022/12/27 06:10:27;;;;;;;5.00;1.83;;;3.50;99.90;2.90;99968;;;;578229;244;24057;-79
2022/12/27 06:12:55;;;;;;;8.43;1.80;;;3.40;99.90;2.80;99967;;;;578185;244;24061;-80
2022/12/27 06:15:23;;;;;;;3.07;1.77;;;3.40;99.90;2.70;99970;;;;578171;244;24061;-78
2022/12/27 06:17:51;;;;;;;8.13;1.83;;;3.40;99.90;2.70;99975;;;;586115;243;24154;-74
2022/12/27 06:20:22;;;;;;;6.50;2.10;;;3.30;99.90;2.60;99982;;;;577612;244;25111;-72
2022/12/27 06:22:47;;;;;;;7.10;2.20;;;3.20;99.90;2.50;99978;;;;576979;244;24073;-73
2022/12/27 06:25:19;;;;;;;10.65;2.85;;;3.10;99.90;2.50;99977;;;;576344;244;35189;-71
2022/12/27 06:27:44;;;;;;;3.10;1.43;;;3.10;99.90;2.60;99977;;;;577085;244;24061;-73
2022/12/27 06:30:12;;;;;;;3.60;1.60;;;3.20;99.90;2.70;99981;;;;577376;245;25089;-73
2022/12/27 06:32:40;;;;;;;5.47;1.70;;;3.20;99.90;2.70;99986;;;;586359;244;24057;-75
2022/12/27 06:35:10;;;;;;;2.10;1.60;;;3.30;99.90;2.80;99988;;;;576737;245;24091;-73
2022/12/27 06:37:40;;;;;;;3.00;1.77;;;3.40;99.90;2.90;99994;;;;586262;243;24080;-73
2022/12/27 06:40:05;;;;;;;6.73;2.07;;;3.50;99.90;2.90;99995;;;;581876;245;24085;-72
2022/12/27 06:42:33;;;;;;;4.57;1.50;;;3.50;99.90;3.00;100007;;;;586695;241;24088;-73
2022/12/27 06:45:04;;;;;;;11.10;1.37;;;3.60;99.90;3.00;100006;;;;578199;245;25123;-72
2022/12/27 06:47:29;;;;;;;6.93;1.60;;;3.70;99.90;3.00;100011;;;;576841;245;25147;-72
2022/12/27 06:49:57;;;;;;;3.33;1.83;;;3.60;99.90;3.10;100016;;;;578236;245;24049;-72
2022/12/27 06:52:25;;;;;;;4.50;1.93;;;3.70;99.90;3.10;100025;;;;577915;245;24069;-75
2022/12/27 06:54:53;;;;;;;7.27;2.20;;;3.70;99.90;3.20;100029;;;;577809;245;24065;-72
2022/12/27 06:57:21;;;;;;;3.87;1.27;;;3.80;99.90;3.20;100035;;;;575620;245;24076;-74
2022/12/27 06:59:49;;;;;;;5.13;2.03;;;3.80;99.90;3.20;100047;;;;556696;254;24118;-72
2022/12/27 07:02:20;;;;;;;3.27;1.50;;;3.80;99.90;3.30;100044;;;;566783;253;24113;-72
2022/12/27 07:04:45;;;;;;;3.57;1.77;;;3.90;99.90;3.30;100042;;;;553872;257;24135;-73
2022/12/27 07:07:12;;;;;;;9.90;2.07;;;3.90;99.90;3.30;100048;;;;559774;254;24125;-72
2022/12/27 07:09:40;;;;;;;3.73;1.70;;;3.90;99.90;3.30;100050;;;;560277;253;24148;-73
2022/12/27 07:12:08;;;;;;;5.77;1.67;;;4.00;99.90;3.40;100052;;;;559831;253;24115;-73
2022/12/27 07:14:36;;;;;;;5.90;2.07;;;4.00;99.90;3.40;100049;;;;560163;253;24114;-72
2022/12/27 07:17:04;;;;;;;2.37;1.80;;;4.00;99.90;3.40;100053;;;;559647;253;24146;-75
2022/12/27 07:19:36;;;;;;;6.53;2.17;;;4.10;99.90;3.50;100053;;;;559597;253;24108;-73
2022/12/27 07:22:00;;;;;;;7.87;1.80;;;4.10;99.90;3.50;100054;;;;553322;257;24126;-73
2022/12/27 07:24:32;;;;;;;6.60;1.93;;;4.10;99.90;3.50;100065;;;;559629;253;24122;-72
2022/12/27 07:26:57;;;;;;;5.03;1.83;;;4.10;99.90;3.60;100064;;;;561608;254;24138;-74
2022/12/27 07:29:25;;;;;;;5.00;1.90;;;4.20;99.90;3.60;100056;;;;559620;253;24122;-73
2022/12/27 07:31:52;;;;;;;8.93;1.70;;;4.20;99.90;3.60;100066;;;;567012;249;24091;-74
2022/12/27 07:34:20;;;;;;;4.87;2.03;;;4.20;99.90;3.60;100068;;;;567332;249;25472;-72
2022/12/27 07:36:48;;;;;;;12.23;1.97;;;4.20;99.90;3.60;100074;;;;574689;247;24111;-72
2022/12/27 07:39:16;;;;;;;7.50;2.57;;;4.20;99.90;3.60;100081;;;;573614;249;24078;-71
2022/12/27 07:41:44;;;;;;;7.03;2.07;;;4.20;99.90;3.70;100080;;;;557054;254;24072;-72
2022/12/27 07:44:12;;;;;;;5.13;1.47;;;4.30;99.90;3.70;100089;;;;560418;254;24105;-79
2022/12/27 07:46:40;;;;;;;6.00;1.97;;;4.30;99.90;3.70;100083;;;;560955;251;24181;-78
2022/12/27 07:49:08;;;;;;;5.73;2.90;;;4.30;99.90;3.70;100091;;;;544839;257;24088;-79
2022/12/27 07:51:36;;;;;;;7.97;2.43;;;4.30;99.90;3.70;100089;;;;544406;259;24111;-74
2022/12/27 07:54:04;;;;;;;5.17;1.93;;;4.30;99.90;3.70;100094;;;;545526;259;24110;-77
2022/12/27 07:56:31;;;;;;;10.33;2.10;;;4.30;99.90;3.70;100097;;;;545353;259;24106;-74
2022/12/27 07:59:02;;;;;;;7.70;1.80;;;4.40;99.90;3.80;100097;;;;545269;259;24103;-73
2022/12/27 08:01:28;;;;;;;3.47;1.37;;;4.40;99.90;3.70;100097;;;;555155;258;24187;-78
2022/12/27 08:03:56;;;;;;;3.63;2.13;;;4.40;99.90;3.70;100088;;;;555901;258;24100;-75
2022/12/27 08:06:33;;;;;;;2.83;1.87;;;4.40;99.90;3.70;100094;;;;552564;259;25134;-74
2022/12/27 08:08:58;;;;;;;12.00;6.23;;;4.40;99.90;3.80;100090;;;;542432;259;24147;-76
2022/12/27 08:11:26;;;;;;;7.73;3.87;;;4.40;99.90;3.80;100093;;;;543982;259;24118;-75
2022/12/27 08:13:53;;;;;;;6.17;2.33;;;4.40;99.90;3.80;100089;;;;546524;259;24108;-75
2022/12/27 08:16:24;;;;;;;7.80;2.27;;;4.40;99.90;3.80;100096;;;;544554;259;24168;-74
2022/12/27 08:18:55;;;;;;;2.77;1.37;;;4.40;99.90;3.80;100093;;;;544423;259;24154;-73
2022/12/27 08:21:23;;;;;;;4.93;1.90;;;4.40;99.90;3.80;100095;;;;547213;254;24095;-74
2022/12/27 08:23:49;;;;;;;6.37;2.20;;;4.40;99.90;3.80;100092;;;;556945;253;24165;-74
2022/12/27 08:26:20;;;;;;;5.07;1.90;;;4.40;99.90;3.80;100093;;;;548737;259;24090;-74
2022/12/27 08:28:45;;;;;;;2.53;1.77;;;4.40;99.90;3.80;100094;;;;559518;253;24112;-77
2022/12/27 08:31:13;;;;;;;3.13;1.87;;;4.50;99.90;3.90;100095;;;;556960;251;24112;-74
2022/12/27 08:33:41;;;;;;;4.00;1.80;;;4.50;99.90;3.90;100098;;;;548943;255;24119;-75
2022/12/27 08:36:10;;;;;;;3.17;1.70;;;4.50;99.90;3.80;100102;;;;568554;253;24137;-74
2022/12/27 08:38:40;;;;;;;3.57;1.67;;;4.50;99.90;3.80;100089;;;;567854;252;24109;-80
2022/12/27 08:41:06;;;;;;;2.53;1.77;;;4.50;99.90;3.80;100097;;;;563612;254;24098;-75
2022/12/27 08:43:34;;;;;;;4.23;1.90;;;4.50;99.90;3.90;100105;;;;561811;249;24129;-74
2022/12/27 08:46:09;;;;;;;6.40;2.00;;;4.50;99.90;3.90;100081;;;;544100;259;24227;-73
2022/12/27 08:48:36;;;;;;;3.17;1.23;;;4.50;99.90;3.80;100084;;;;557375;255;24183;-76
2022/12/27 08:51:08;;;;;;;6.07;2.27;;;4.50;99.90;3.90;100085;;;;559378;249;24101;-77
2022/12/27 08:53:35;;;;;;;2.20;2.00;;;4.50;99.90;3.90;100091;;;;570099;250;24108;-80
2022/12/27 08:56:00;;;;;;;5.77;1.73;;;4.50;99.90;4.00;100097;;;;575485;249;24107;-76
2022/12/27 08:58:28;;;;;;;2.70;1.97;;;4.60;99.90;4.00;100114;;;;576210;249;24120;-77
2022/12/27 09:00:57;;;;;;;9.07;2.70;;;4.60;99.90;4.00;100106;;;;576710;248;24088;-77
2022/12/27 09:03:26;;;;;;;3.80;1.43;;;4.60;99.90;4.00;100108;;;;563898;249;24108;-78
2022/12/27 09:05:54;;;;;;;7.00;1.70;;;4.60;99.90;4.10;100102;;;;576847;249;24111;-77
2022/12/27 09:08:22;;;;;;;5.97;1.90;;;4.70;99.90;4.00;100085;;;;576592;249;24093;-78
2022/12/27 09:10:50;;;;;;;5.80;1.67;;;4.60;99.90;4.10;100084;;;;577242;249;24154;-73
2022/12/27 09:13:18;;;;;;;5.73;1.27;;;4.70;99.90;4.00;100099;;;;576709;249;24088;-73
2022/12/27 09:15:46;;;;;;;6.07;2.43;;;4.70;99.90;4.00;100095;;;;576565;249;24116;-74
2022/12/27 09:18:15;;;;;;;6.60;2.15;;;4.60;99.90;4.00;100103;;;;571740;249;35224;-75
2022/12/27 09:20:43;;;;;;;8.33;2.17;;;4.60;99.90;4.00;100103;;;;576781;249;24108;-72
2022/12/27 09:23:11;;;;;;;3.83;1.60;;;4.60;99.90;4.00;100105;;;;576678;249;24140;-72
2022/12/27 09:25:38;;;;;;;2.00;1.67;;;4.60;99.90;4.10;100103;;;;576864;249;24119;-73
2022/12/27 09:28:08;;;;;;;4.93;1.33;;;4.70;99.90;4.10;100108;;;;579565;244;24114;-72
2022/12/27 09:30:34;;;;;;;6.17;1.87;;;4.70;99.90;4.10;100117;;;;572506;249;24114;-75
2022/12/27 09:33:02;;;;;;;6.37;1.50;;;4.70;99.90;4.10;100106;;;;571600;249;24133;-75
2022/12/27 09:35:33;;;;;;;14.03;1.70;;;4.70;99.90;4.00;100115;;;;567163;249;24103;-72
2022/12/27 09:37:58;;;;;;;3.53;1.33;;;4.70;99.90;4.00;100104;;;;560670;252;24112;-71
2022/12/27 09:40:27;;;;;;;3.80;1.67;;;4.60;99.90;4.00;100102;;;;580447;244;24067;-73
2022/12/27 09:43:06;;;;;;;4.77;1.87;;;4.60;99.90;4.00;100109;;;;577578;244;24071;-73
2022/12/27 09:45:40;;;;;;;5.47;1.90;;;4.70;99.90;4.00;100095;;;;576071;244;24078;-72
2022/12/27 09:48:10;;;;;;;2.07;1.37;;;4.60;99.90;4.00;100101;;;;577563;244;24061;-73
2022/12/27 09:50:56;;;;;;;4.27;1.93;;;4.60;99.90;4.00;100090;;;;577471;244;24109;-72
2022/12/27 09:53:33;;;;;;;2.23;1.53;;;4.60;99.90;4.00;100108;;;;587014;243;24056;-73
2022/12/27 09:56:00;;;;;;;1.93;1.70;;;4.60;99.90;4.00;100107;;;;577064;244;24118;-74
2022/12/27 09:58:40;;;;;;;4.90;2.10;;;4.60;99.90;4.00;100112;;;;582008;244;24045;-74
2022/12/27 10:01:29;;;;;;;2.13;1.63;;;4.60;99.90;4.00;100108;;;;576976;244;24065;-74
2022/12/27 10:04:01;;;;;;;7.37;1.70;;;4.60;99.90;4.00;100111;;;;569091;249;24126;-72
2022/12/27 10:06:49;;;;;;;2.67;1.50;;;4.60;99.90;3.90;100100;;;;564145;249;24091;-71
2022/12/27 10:09:34;;;;;;;2.50;1.77;;;4.60;99.90;3.90;100109;;;;572435;248;24112;-72
2022/12/27 10:12:24;;;;;;;5.40;1.67;;;4.50;99.90;3.90;100102;;;;574454;248;24138;-72
2022/12/27 10:15:18;;;;;;;6.37;1.73;;;4.50;99.90;3.90;100108;;;;577673;248;24113;-71
2022/12/27 10:18:12;;;;;;;2.33;1.63;;;4.50;99.90;3.90;100104;;;;562996;253;24222;-74
2022/12/27 10:21:07;;;;;;;5.80;2.30;;;4.50;99.90;4.00;100109;;;;565796;252;24107;-77
2022/12/27 10:23:35;;;;;;;5.37;1.80;;;4.50;99.90;4.00;100115;;;;570410;248;24101;-71
2022/12/27 10:26:06;;;;;;;3.73;2.00;;;4.60;99.90;4.00;100108;;;;563940;249;24099;-73
2022/12/27 10:28:43;;;;;;;4.63;1.33;;;4.50;99.90;3.90;100110;;;;574747;249;24081;-72
2022/12/27 10:31:16;;;;;;;3.40;1.57;;;4.60;99.90;4.00;100118;;;;566574;249;24082;-72
2022/12/27 10:33:47;;;;;;;14.43;2.13;;;4.60;99.90;4.00;100115;;;;568155;248;24096;-71
2022/12/27 10:36:15;;;;;;;3.10;1.23;;;4.60;99.90;4.00;100100;;;;575708;249;24216;-72
2022/12/27 10:38:47;;;;;;;2.87;1.27;;;4.60;99.90;4.10;100106;;;;566061;249;24112;-74
2022/12/27 10:41:29;;;;;;;3.93;1.70;;;4.70;99.90;4.10;100119;;;;564105;249;24093;-75
2022/12/27 10:43:57;;;;;;;4.90;2.20;;;4.70;99.90;4.20;100115;;;;573968;249;24102;-71
2022/12/27 10:46:28;;;;;;;5.27;1.67;;;4.80;99.90;4.30;100109;;;;567115;249;24103;-73
2022/12/27 10:48:58;;;;;;;4.63;1.80;;;4.80;99.90;4.20;100119;;;;575990;249;24129;-71
2022/12/27 10:51:26;;;;;;;2.93;1.83;;;4.80;99.90;4.20;100121;;;;566061;249;24074;-73
2022/12/27 10:53:54;;;;;;;4.80;2.50;;;4.80;99.90;4.20;100122;;;;575011;249;24093;-78
2022/12/27 10:56:28;;;;;;;4.80;2.07;;;4.80;99.90;4.20;100121;;;;566345;249;24104;-76
2022/12/27 10:59:23;;;;;;;4.33;1.97;;;4.80;99.90;4.20;100113;;;;554493;255;24144;-77
2022/12/27 11:02:00;;;;;;;2.07;1.97;;;4.80;99.90;4.20;100114;;;;559070;253;24135;-78
2022/12/27 11:04:28;;;;;;;2.00;1.90;;;4.80;99.90;4.20;100117;;;;577949;244;24087;-79
2022/12/27 11:07:00;;;;;;;2.70;2.03;;;4.80;99.90;4.30;100115;;;;577111;245;24057;-78
2022/12/27 11:09:27;;;;;;;6.80;2.63;;;4.80;99.90;4.20;100121;;;;586147;245;24095;-75
2022/12/27 11:12:19;;;;;;;2.37;2.17;;;4.80;99.90;4.20;100128;;;;577049;245;24076;-77
2022/12/27 11:15:03;;;;;;;3.23;2.30;;;4.80;99.90;4.20;100133;;;;575661;245;24085;-76
2022/12/27 11:17:45;;;;;;;2.63;2.43;;;4.80;99.90;4.10;100126;;;;576984;245;24098;-74
2022/12/27 11:20:24;;;;;;;3.57;2.87;;;4.80;99.90;4.10;100129;;;;586249;245;24108;-76
2022/12/27 11:23:10;;;;;;;3.20;1.47;;;4.70;99.90;4.00;100125;;;;569216;246;24109;-74
2022/12/27 11:25:55;;;;;;;4.77;2.43;;;4.70;99.90;4.00;100129;;;;572237;243;24123;-78
2022/12/27 11:28:39;;;;;;;4.57;2.53;;;4.60;99.90;3.90;100131;;;;576323;245;24116;-76
2022/12/27 11:31:04;;;;;;;6.53;2.80;;;4.50;99.90;3.90;100127;;;;570181;249;24129;-78
2022/12/27 11:33:47;;;;;;;4.90;3.33;;;4.50;99.90;3.90;100115;;;;568340;249;24093;-76
2022/12/27 11:36:15;;;;;;;7.27;3.20;;;4.50;99.90;3.90;100121;;;;575004;249;24107;-77
2022/12/27 11:38:46;;;;;;;4.80;3.07;;;4.50;99.90;3.90;100114;;;;574718;249;24122;-74
2022/12/27 11:41:13;;;;;;;5.57;3.40;;;4.50;99.90;3.80;100118;;;;557449;254;24031;-77
2022/12/27 11:43:47;;;;;;;3.20;2.57;;;4.50;99.90;3.90;100123;;;;555702;255;24161;-78
2022/12/27 11:46:42;;;;;;;5.93;2.83;;;4.50;99.90;4.00;100122;;;;567299;248;24128;-75
2022/12/27 11:49:12;;;;;;;3.73;2.57;;;4.50;99.90;4.00;100125;;;;577422;249;24109;-77
2022/12/27 11:52:07;;;;;;;7.20;3.20;;;4.60;99.90;4.00;100126;;;;568004;249;24107;-78
2022/12/27 11:54:59;;;;;;;6.40;2.83;;;4.60;99.90;4.10;100145;;;;578715;246;24133;-77
2022/12/27 11:57:36;;;;;;;4.23;2.80;;;4.70;99.90;4.10;100129;;;;578921;248;24095;-77
2022/12/27 12:00:30;;;;;;;6.17;3.27;;;4.70;99.90;4.20;100135;;;;576431;249;24088;-77
2022/12/27 12:03:10;;;;;;;3.40;2.60;;;4.80;99.90;4.20;100123;;;;576168;248;24113;-77
2022/12/27 12:06:12;;;;;;;3.90;2.30;;;4.70;99.90;4.10;100127;;;;578720;247;24101;-79
2022/12/27 12:08:43;;;;;;;4.50;2.80;;;4.70;99.90;4.10;100121;;;;577666;244;24095;-79
2022/12/27 12:11:31;;;;;;;4.13;2.07;;;4.70;99.90;4.10;100124;;;;566928;250;24104;-78
2022/12/27 12:14:20;;;;;;;5.23;2.93;;;4.70;99.90;4.00;100136;;;;572875;249;24087;-79
2022/12/27 12:17:13;;;;;;;3.73;3.00;;;4.60;99.90;3.90;100119;;;;573420;249;24118;-79
2022/12/27 12:20:01;;;;;;;5.07;3.10;;;4.40;99.90;3.80;100130;;;;577238;249;24117;-78
2022/12/27 12:22:32;;;;;;;3.77;1.83;;;4.40;99.90;3.70;100122;;;;576905;249;24104;-79
2022/12/27 12:25:42;;;;;;;2.13;1.93;;;4.30;99.90;3.60;100120;;;;558586;249;24116;-79
2022/12/27 12:28:34;;;;;;;4.37;3.13;;;4.10;99.90;3.50;100123;;;;557551;254;24158;-80
2022/12/27 12:31:32;;;;;;;4.07;3.07;;;4.00;99.90;3.40;100128;;;;566416;250;24183;-78
2022/12/27 12:34:30;;;;;;;7.47;3.83;;;4.00;99.90;3.30;100120;;;;550209;257;35441;-77
2022/12/27 12:37:37;;;;;;;2.93;2.73;;;3.90;99.90;3.30;100119;;;;567525;249;24129;-79
2022/12/27 12:40:29;;;;;;;3.70;3.40;;;3.90;99.90;3.30;100134;;;;555898;256;24141;-78
2022/12/27 12:43:21;;;;;;;2.83;2.63;;;3.80;99.90;3.30;100142;;;;567158;249;24136;-77
2022/12/27 12:46:31;;;;;;;3.17;2.50;;;3.80;99.90;3.20;100138;;;;555588;256;24131;-79
2022/12/27 12:49:21;;;;;;;4.10;3.10;;;3.80;99.90;3.10;100125;;;;574649;250;24111;-74
2022/12/27 12:52:27;;;;;;;3.47;2.87;;;3.70;99.90;3.10;100127;;;;549201;258;24176;-73
2022/12/27 12:55:04;;;;;;;6.27;4.27;;;3.70;99.90;3.00;100127;;;;550238;251;35464;-73
2022/12/27 12:57:41;;;;;;;4.83;3.27;;;3.60;99.90;3.00;100108;;;;557127;254;24125;-74
2022/12/27 13:00:28;;;;;;;4.63;3.37;;;3.60;99.90;3.00;100108;;;;566398;253;24142;-74
2022/12/27 13:03:29;;;;;;;3.10;2.43;;;3.60;99.90;3.00;100113;;;;566650;253;24125;-73
2022/12/27 13:06:04;;;;;;;3.97;3.10;;;3.70;99.90;3.10;100115;;;;558015;254;24138;-72
2022/12/27 13:08:56;;;;;;;3.53;3.23;;;3.60;99.90;3.10;100103;;;;557972;254;24113;-76
2022/12/27 13:11:32;;;;;;;4.67;2.90;;;3.70;99.90;3.00;100134;;;;557664;254;24122;-72
2022/12/27 13:14:21;;;;;;;4.27;2.43;;;3.60;99.90;2.90;100117;;;;556148;249;24089;-72
2022/12/27 13:17:07;;;;;;;5.67;2.73;;;3.50;99.90;2.90;100109;;;;565905;253;25202;-71
2022/12/27 13:19:38;;;;;;;4.30;3.67;;;3.50;99.90;2.80;100114;;;;553649;249;24148;-72
2022/12/27 13:22:15;;;;;;;8.13;3.80;;;3.40;99.90;2.70;100116;;;;553871;259;24164;-73
2022/12/27 13:24:43;;;;;;;5.83;3.73;;;3.40;99.90;2.70;100130;;;;565524;253;24172;-71
2022/12/27 13:27:23;;;;;;;5.83;3.80;;;3.30;99.90;2.60;100133;;;;556494;253;24145;-71
2022/12/27 13:30:02;;;;;;;4.20;3.80;;;3.30;99.90;2.60;100130;;;;556093;254;24134;-71
2022/12/27 13:33:06;;;;;;;4.97;3.77;;;3.20;99.90;2.50;100132;;;;571591;248;24121;-75
2022/12/27 13:36:23;;;;;;;3.23;2.93;;;3.10;99.90;2.40;100133;;;;567174;249;24113;-73
2022/12/27 13:38:56;;;;;;;3.73;3.43;;;3.10;99.90;2.40;100149;;;;553521;257;24135;-71